sensor_id;sensor_type;location;lat;lon;timestamp;pressure;altitude;pressure_sealevel;temperature;humidity
55576;BME280;41437;45.478;9.116;2023-02-18T00:02:05;101037.56;;;6.80;100.00
55576;BME280;41437;45.478;9.116;2023-02-18T00:05:08;101033.16;;;6.79;100.00
55576;BME280;41437;45.478;9.116;2023-02-18T00:08:09;101032.47;;;6.64;100.00
55576;BME280;41437;45.478;9.116;2023-02-18T00:11:11;101023.81;;;6.61;100.00
55576;BME280;41437;45.478;9.116;2023-02-18T00:14:14;101027.63;;;6.73;100.00
55576;BME280;41437;45.478;9.116;2023-02-18T00:17:16;101020.94;;;6.89;100.00
55576;BME280;41437;45.478;9.116;2023-02-18T00:20:19;101024.94;;;6.86;100.00
55576;BME280;41437;45.478;9.116;2023-02-18T00:23:21;101021.53;;;6.77;100.00
55576;BME280;41437;45.478;9.116;2023-02-18T00:26:22;101020.91;;;6.82;100.00
55576;BME280;41437;45.478;9.116;2023-02-18T00:29:24;101022.19;;;6.79;100.00
55576;BME280;41437;45.478;9.116;2023-02-18T00:32:25;101016.06;;;6.77;100.00
55576;BME280;41437;45.478;9.116;2023-02-18T00:35:30;101015.03;;;6.85;100.00
55576;BME280;41437;45.478;9.116;2023-02-18T00:38:34;101017.56;;;6.80;100.00
55576;BME280;41437;45.478;9.116;2023-02-18T00:41:36;101016.06;;;6.77;100.00
55576;BME280;41437;45.478;9.116;2023-02-18T00:44:38;101005.31;;;6.76;100.00
55576;BME280;41437;45.478;9.116;2023-02-18T00:47:40;101000.25;;;6.73;100.00
55576;BME280;41437;45.478;9.116;2023-02-18T00:50:43;101004.66;;;6.67;100.00
55576;BME280;41437;45.478;9.116;2023-02-18T00:53:45;100986.31;;;6.61;100.00
55576;BME280;41437;45.478;9.116;2023-02-18T00:56:46;100989.84;;;6.48;100.00
55576;BME280;41437;45.478;9.116;2023-02-18T00:59:48;100992.19;;;6.51;100.00
55576;BME280;41437;45.478;9.116;2023-02-18T01:02:49;100996.59;;;6.52;100.00
55576;BME280;41437;45.478;9.116;2023-02-18T01:05:55;100984.38;;;6.48;100.00
55576;BME280;41437;45.478;9.116;2023-02-18T01:08:56;100985.66;;;6.52;100.00
55576;BME280;41437;45.478;9.116;2023-02-18T01:11:58;100985.91;;;6.64;100.00
55576;BME280;41437;45.478;9.116;2023-02-18T01:15:03;100981.88;;;6.60;100.00
55576;BME280;41437;45.478;9.116;2023-02-18T01:18:05;100979.38;;;6.59;100.00
55576;BME280;41437;45.478;9.116;2023-02-18T01:21:09;100985.25;;;6.55;100.00
55576;BME280;41437;45.478;9.116;2023-02-18T01:24:10;100979.78;;;6.49;100.00
55576;BME280;41437;45.478;9.116;2023-02-18T01:27:12;100981.22;;;6.51;100.00
55576;BME280;41437;45.478;9.116;2023-02-18T01:30:15;100975.16;;;6.63;100.00
55576;BME280;41437;45.478;9.116;2023-02-18T01:33:19;100973.91;;;6.72;100.00
55576;BME280;41437;45.478;9.116;2023-02-18T01:36:22;100981.72;;;6.75;100.00
55576;BME280;41437;45.478;9.116;2023-02-18T01:39:24;100970.97;;;6.73;100.00
55576;BME280;41437;45.478;9.116;2023-02-18T01:42:27;100974.53;;;6.74;100.00
55576;BME280;41437;45.478;9.116;2023-02-18T01:45:55;100969.69;;;6.69;100.00
55576;BME280;41437;45.478;9.116;2023-02-18T01:48:59;100970.53;;;6.63;100.00
55576;BME280;41437;45.478;9.116;2023-02-18T01:52:03;100966.50;;;6.66;100.00
55576;BME280;41437;45.478;9.116;2023-02-18T01:55:07;100967.13;;;6.61;100.00
55576;BME280;41437;45.478;9.116;2023-02-18T01:58:09;100970.09;;;6.60;100.00
55576;BME280;41437;45.478;9.116;2023-02-18T02:01:11;100971.34;;;6.57;100.00
55576;BME280;41437;45.478;9.116;2023-02-18T02:04:13;100968.19;;;6.53;100.00
55576;BME280;41437;45.478;9.116;2023-02-18T02:07:17;100966.09;;;6.55;100.00
55576;BME280;41437;45.478;9.116;2023-02-18T02:10:19;100958.28;;;6.52;100.00
55576;BME280;41437;45.478;9.116;2023-02-18T02:13:27;100951.78;;;6.53;100.00
55576;BME280;41437;45.478;9.116;2023-02-18T02:16:38;100958.28;;;6.52;100.00
55576;BME280;41437;45.478;9.116;2023-02-18T02:20:11;100959.34;;;6.51;100.00
55576;BME280;41437;45.478;9.116;2023-02-18T02:23:25;100954.25;;;6.48;100.00
55576;BME280;41437;45.478;9.116;2023-02-18T02:30:43;100956.91;;;6.15;100.00
55576;BME280;41437;45.478;9.116;2023-02-18T02:34:19;100955.69;;;6.24;100.00
55576;BME280;41437;45.478;9.116;2023-02-18T02:37:27;100950.00;;;6.26;100.00
55576;BME280;41437;45.478;9.116;2023-02-18T02:40:34;100950.19;;;6.24;100.00
55576;BME280;41437;45.478;9.116;2023-02-18T02:43:50;100953.56;;;6.26;100.00
55576;BME280;41437;45.478;9.116;2023-02-18T02:46:59;100944.50;;;6.19;100.00
55576;BME280;41437;45.478;9.116;2023-02-18T02:50:07;100944.66;;;6.04;100.00
55576;BME280;41437;45.478;9.116;2023-02-18T02:53:14;100946.53;;;6.04;100.00
55576;BME280;41437;45.478;9.116;2023-02-18T02:56:22;100943.81;;;6.04;100.00
55576;BME280;41437;45.478;9.116;2023-02-18T02:59:25;100932.25;;;6.09;100.00
55576;BME280;41437;45.478;9.116;2023-02-18T03:02:34;100925.97;;;6.15;100.00
55576;BME280;41437;45.478;9.116;2023-02-18T03:05:54;100923.59;;;6.05;100.00
55576;BME280;41437;45.478;9.116;2023-02-18T03:09:06;100918.75;;;6.00;100.00
55576;BME280;41437;45.478;9.116;2023-02-18T03:12:16;100922.34;;;6.01;100.00
55576;BME280;41437;45.478;9.116;2023-02-18T03:15:23;100926.34;;;6.05;100.00
55576;BME280;41437;45.478;9.116;2023-02-18T03:18:34;100912.56;;;5.85;100.00
55576;BME280;41437;45.478;9.116;2023-02-18T03:21:43;100928.84;;;5.93;100.00
55576;BME280;41437;45.478;9.116;2023-02-18T03:24:49;100924.00;;;5.95;100.00
55576;BME280;41437;45.478;9.116;2023-02-18T03:27:54;100918.97;;;5.99;100.00
55576;BME280;41437;45.478;9.116;2023-02-18T03:30:59;100926.94;;;6.00;100.00
55576;BME280;41437;45.478;9.116;2023-02-18T03:34:06;100937.03;;;5.93;100.00
55576;BME280;41437;45.478;9.116;2023-02-18T03:37:12;100915.16;;;5.93;100.00
55576;BME280;41437;45.478;9.116;2023-02-18T03:40:17;100929.06;;;5.98;100.00
55576;BME280;41437;45.478;9.116;2023-02-18T03:43:19;100932.03;;;6.03;100.00
55576;BME280;41437;45.478;9.116;2023-02-18T03:46:22;100935.81;;;6.02;100.00
55576;BME280;41437;45.478;9.116;2023-02-18T03:49:24;100931.94;;;5.90;100.00
55576;BME280;41437;45.478;9.116;2023-02-18T03:52:27;100926.44;;;5.84;100.00
55576;BME280;41437;45.478;9.116;2023-02-18T03:55:28;100929.38;;;5.82;100.00
55576;BME280;41437;45.478;9.116;2023-02-18T03:58:30;100929.38;;;5.82;100.00
55576;BME280;41437;45.478;9.116;2023-02-18T04:01:31;100927.06;;;5.79;100.00
55576;BME280;41437;45.478;9.116;2023-02-18T04:04:33;100928.91;;;5.78;100.00
55576;BME280;41437;45.478;9.116;2023-02-18T04:07:36;100936.44;;;5.70;100.00
55576;BME280;41437;45.478;9.116;2023-02-18T04:10:37;100939.28;;;5.48;100.00
55576;BME280;41437;45.478;9.116;2023-02-18T04:13:39;100935.97;;;5.25;100.00
55576;BME280;41437;45.478;9.116;2023-02-18T04:16:40;100940.13;;;5.21;100.00
55576;BME280;41437;45.478;9.116;2023-02-18T04:19:42;100934.44;;;5.16;100.00
55576;BME280;41437;45.478;9.116;2023-02-18T04:22:45;100927.75;;;5.18;100.00
55576;BME280;41437;45.478;9.116;2023-02-18T04:25:46;100927.56;;;5.26;100.00
55576;BME280;41437;45.478;9.116;2023-02-18T04:28:48;100923.44;;;5.37;100.00
55576;BME280;41437;45.478;9.116;2023-02-18T04:31:49;100932.94;;;5.41;100.00
55576;BME280;41437;45.478;9.116;2023-02-18T04:34:51;100922.25;;;5.46;100.00
55576;BME280;41437;45.478;9.116;2023-02-18T04:37:54;100928.78;;;5.52;100.00
55576;BME280;41437;45.478;9.116;2023-02-18T04:40:56;100930.28;;;5.54;100.00
55576;BME280;41437;45.478;9.116;2023-02-18T04:43:57;100938.00;;;5.44;100.00
55576;BME280;41437;45.478;9.116;2023-02-18T04:46:59;100935.72;;;5.20;100.00
55576;BME280;41437;45.478;9.116;2023-02-18T04:50:01;100937.53;;;5.06;100.00
55576;BME280;41437;45.478;9.116;2023-02-18T04:53:04;100931.38;;;4.76;100.00
55576;BME280;41437;45.478;9.116;2023-02-18T04:56:06;100924.97;;;4.62;100.00
55576;BME280;41437;45.478;9.116;2023-02-18T04:59:07;100931.00;;;4.58;100.00
55576;BME280;41437;45.478;9.116;2023-02-18T05:02:09;100935.59;;;4.36;100.00
55576;BME280;41437;45.478;9.116;2023-02-18T05:05:10;100928.63;;;4.33;100.00
55576;BME280;41437;45.478;9.116;2023-02-18T05:08:13;100937.47;;;4.35;100.00
55576;BME280;41437;45.478;9.116;2023-02-18T05:11:15;100933.06;;;4.34;100.00
55576;BME280;41437;45.478;9.116;2023-02-18T05:14:17;100937.47;;;4.35;100.00
55576;BME280;41437;45.478;9.116;2023-02-18T05:17:18;100938.13;;;4.37;100.00
55576;BME280;41437;45.478;9.116;2023-02-18T05:20:20;100943.22;;;4.40;100.00
55576;BME280;41437;45.478;9.116;2023-02-18T05:23:23;100931.31;;;4.48;100.00
55576;BME280;41437;45.478;9.116;2023-02-18T05:26:25;100934.81;;;4.63;100.00
55576;BME280;41437;45.478;9.116;2023-02-18T05:29:26;100941.75;;;4.66;100.00
55576;BME280;41437;45.478;9.116;2023-02-18T05:32:28;100944.38;;;4.74;100.00
55576;BME280;41437;45.478;9.116;2023-02-18T05:35:29;100939.19;;;4.79;100.00
55576;BME280;41437;45.478;9.116;2023-02-18T05:38:32;100949.78;;;4.89;100.00
55576;BME280;41437;45.478;9.116;2023-02-18T05:41:34;100949.44;;;4.98;100.00
55576;BME280;41437;45.478;9.116;2023-02-18T05:44:35;100950.34;;;5.06;100.00
55576;BME280;41437;45.478;9.116;2023-02-18T05:47:37;100934.69;;;4.93;100.00
55576;BME280;41437;45.478;9.116;2023-02-18T05:50:39;100942.41;;;4.89;100.00
55576;BME280;41437;45.478;9.116;2023-02-18T05:53:43;100942.88;;;4.71;100.00
55576;BME280;41437;45.478;9.116;2023-02-18T05:56:45;100934.50;;;4.73;100.00
55576;BME280;41437;45.478;9.116;2023-02-18T05:59:46;100945.75;;;4.85;100.00
55576;BME280;41437;45.478;9.116;2023-02-18T06:02:48;100954.78;;;4.85;100.00
55576;BME280;41437;45.478;9.116;2023-02-18T06:05:49;100964.00;;;4.84;100.00
55576;BME280;41437;45.478;9.116;2023-02-18T06:08:52;100967.75;;;4.83;100.00
55576;BME280;41437;45.478;9.116;2023-02-18T06:11:54;100963.56;;;4.81;100.00
55576;BME280;41437;45.478;9.116;2023-02-18T06:14:55;100966.03;;;4.75;100.00
55576;BME280;41437;45.478;9.116;2023-02-18T06:17:57;100974.81;;;4.71;100.00
55576;BME280;41437;45.478;9.116;2023-02-18T06:20:59;100976.56;;;4.57;100.00
55576;BME280;41437;45.478;9.116;2023-02-18T06:24:02;100976.09;;;4.53;100.00
55576;BME280;41437;45.478;9.116;2023-02-18T06:27:03;100980.50;;;4.54;100.00
55576;BME280;41437;45.478;9.116;2023-02-18T06:30:06;100971.66;;;4.52;100.00
55576;BME280;41437;45.478;9.116;2023-02-18T06:33:08;100974.25;;;4.61;100.00
55576;BME280;41437;45.478;9.116;2023-02-18T06:36:10;100976.41;;;4.65;100.00
55576;BME280;41437;45.478;9.116;2023-02-18T06:39:14;100981.50;;;4.68;100.00
55576;BME280;41437;45.478;9.116;2023-02-18T06:42:15;100981.50;;;4.68;100.00
55576;BME280;41437;45.478;9.116;2023-02-18T06:45:17;100985.72;;;4.71;100.00
55576;BME280;41437;45.478;9.116;2023-02-18T06:48:19;100998.34;;;4.72;100.00
55576;BME280;41437;45.478;9.116;2023-02-18T06:51:20;101004.72;;;4.79;100.00
55576;BME280;41437;45.478;9.116;2023-02-18T06:54:23;101012.16;;;4.92;100.00
55576;BME280;41437;45.478;9.116;2023-02-18T06:57:25;101005.34;;;5.02;100.00
55576;BME280;41437;45.478;9.116;2023-02-18T07:00:27;101014.84;;;4.85;100.00
55576;BME280;41437;45.478;9.116;2023-02-18T07:03:33;101014.72;;;4.72;100.00
55576;BME280;41437;45.478;9.116;2023-02-18T07:06:34;101013.03;;;4.71;100.00
55576;BME280;41437;45.478;9.116;2023-02-18T07:09:37;101017.56;;;4.85;100.00
55576;BME280;41437;45.478;9.116;2023-02-18T07:12:39;101015.22;;;4.82;100.00
55576;BME280;41437;45.478;9.116;2023-02-18T07:15:40;101018.69;;;4.91;100.00
55576;BME280;41437;45.478;9.116;2023-02-18T07:18:42;101026.69;;;4.92;100.00
55576;BME280;41437;45.478;9.116;2023-02-18T07:21:43;101022.53;;;4.96;100.00
55576;BME280;41437;45.478;9.116;2023-02-18T07:24:49;101019.25;;;5.08;100.00
55576;BME280;41437;45.478;9.116;2023-02-18T07:27:51;101020.09;;;5.08;100.00
55576;BME280;41437;45.478;9.116;2023-02-18T07:30:54;101016.25;;;5.24;100.00
55576;BME280;41437;45.478;9.116;2023-02-18T07:33:55;101016.75;;;5.34;100.00
55576;BME280;41437;45.478;9.116;2023-02-18T07:36:57;101006.59;;;5.49;100.00
55576;BME280;41437;45.478;9.116;2023-02-18T07:40:00;101011.34;;;5.69;100.00
55576;BME280;41437;45.478;9.116;2023-02-18T07:43:01;101003.88;;;5.84;100.00
55576;BME280;41437;45.478;9.116;2023-02-18T07:46:05;101002.94;;;5.98;100.00
55576;BME280;41437;45.478;9.116;2023-02-18T07:49:06;100996.88;;;6.10;100.00
55576;BME280;41437;45.478;9.116;2023-02-18T07:52:08;101002.78;;;6.13;100.00
55576;BME280;41437;45.478;9.116;2023-02-18T07:55:11;100993.16;;;6.30;100.00
55576;BME280;41437;45.478;9.116;2023-02-18T07:58:12;100995.94;;;6.44;100.00
55576;BME280;41437;45.478;9.116;2023-02-18T08:01:15;100994.75;;;6.60;100.00
55576;BME280;41437;45.478;9.116;2023-02-18T08:04:16;100996.66;;;6.72;100.00
55576;BME280;41437;45.478;9.116;2023-02-18T08:07:19;101006.41;;;6.88;100.00
55576;BME280;41437;45.478;9.116;2023-02-18T08:10:23;101010.59;;;6.91;100.00
55576;BME280;41437;45.478;9.116;2023-02-18T08:13:24;101006.38;;;6.82;100.00
55576;BME280;41437;45.478;9.116;2023-02-18T08:16:26;101007.22;;;6.75;100.00
55576;BME280;41437;45.478;9.116;2023-02-18T08:19:27;101004.25;;;6.77;100.00
55576;BME280;41437;45.478;9.116;2023-02-18T08:22:29;101006.81;;;6.85;100.00
55576;BME280;41437;45.478;9.116;2023-02-18T08:25:32;101003.84;;;6.87;100.00
55576;BME280;41437;45.478;9.116;2023-02-18T08:28:34;101006.41;;;6.95;100.00
55576;BME280;41437;45.478;9.116;2023-02-18T08:31:35;101020.75;;;7.03;100.00
55576;BME280;41437;45.478;9.116;2023-02-18T08:34:37;101016.94;;;7.04;100.00
55576;BME280;41437;45.478;9.116;2023-02-18T08:37:38;101026.88;;;7.05;100.00
55576;BME280;41437;45.478;9.116;2023-02-18T08:40:41;101031.53;;;7.25;100.00
55576;BME280;41437;45.478;9.116;2023-02-18T08:43:43;101033.00;;;7.21;100.00
55576;BME280;41437;45.478;9.116;2023-02-18T08:46:45;101041.44;;;7.33;100.00
55576;BME280;41437;45.478;9.116;2023-02-18T08:49:47;101037.22;;;7.37;100.00
55576;BME280;41437;45.478;9.116;2023-02-18T08:52:49;101039.13;;;7.36;100.00
55576;BME280;41437;45.478;9.116;2023-02-18T08:55:52;101037.00;;;7.18;100.00
55576;BME280;41437;45.478;9.116;2023-02-18T08:58:54;101032.78;;;7.29;100.00
55576;BME280;41437;45.478;9.116;2023-02-18T09:01:55;101029.63;;;7.45;100.00
55576;BME280;41437;45.478;9.116;2023-02-18T09:04:57;101028.38;;;7.54;100.00
55576;BME280;41437;45.478;9.116;2023-02-18T09:07:58;101027.47;;;7.94;100.00
55576;BME280;41437;45.478;9.116;2023-02-18T09:11:02;101032.69;;;8.09;100.00
55576;BME280;41437;45.478;9.116;2023-02-18T09:14:04;101024.47;;;8.09;100.00
55576;BME280;41437;45.478;9.116;2023-02-18T09:17:06;101031.75;;;8.35;100.00
55576;BME280;41437;45.478;9.116;2023-02-18T09:20:08;101025.72;;;8.71;100.00
55576;BME280;41437;45.478;9.116;2023-02-18T09:23:09;101029.00;;;8.86;100.00
55576;BME280;41437;45.478;9.116;2023-02-18T09:26:14;101028.00;;;9.12;100.00
55576;BME280;41437;45.478;9.116;2023-02-18T09:29:16;101030.06;;;9.17;100.00
55576;BME280;41437;45.478;9.116;2023-02-18T09:32:20;101028.13;;;9.49;98.84
55576;BME280;41437;45.478;9.116;2023-02-18T09:35:22;101025.16;;;9.75;98.15
55576;BME280;41437;45.478;9.116;2023-02-18T09:38:23;101025.47;;;9.86;96.84
55576;BME280;41437;45.478;9.116;2023-02-18T09:41:35;101018.06;;;10.04;97.16
55576;BME280;41437;45.478;9.116;2023-02-18T09:44:42;101022.97;;;10.21;96.49
55576;BME280;41437;45.478;9.116;2023-02-18T09:47:45;101019.25;;;10.34;95.14
55576;BME280;41437;45.478;9.116;2023-02-18T09:50:49;101022.69;;;10.29;93.57
55576;BME280;41437;45.478;9.116;2023-02-18T09:53:52;101018.38;;;10.51;94.13
55576;BME280;41437;45.478;9.116;2023-02-18T09:56:55;101013.72;;;10.52;92.68
55576;BME280;41437;45.478;9.116;2023-02-18T10:00:03;101010.56;;;10.67;93.35
55576;BME280;41437;45.478;9.116;2023-02-18T10:03:12;101000.41;;;10.79;91.02
55576;BME280;41437;45.478;9.116;2023-02-18T10:06:29;101003.84;;;11.04;90.55
55576;BME280;41437;45.478;9.116;2023-02-18T10:09:34;101001.16;;;10.86;89.10
55576;BME280;41437;45.478;9.116;2023-02-18T10:12:37;100992.81;;;10.93;88.91
55576;BME280;41437;45.478;9.116;2023-02-18T10:15:42;100997.44;;;10.92;89.79
55576;BME280;41437;45.478;9.116;2023-02-18T10:18:46;100993.63;;;10.93;88.87
55576;BME280;41437;45.478;9.116;2023-02-18T10:21:50;100997.16;;;11.12;88.76
55576;BME280;41437;45.478;9.116;2023-02-18T10:24:54;100986.50;;;11.27;88.24
55576;BME280;41437;45.478;9.116;2023-02-18T10:27:59;100984.72;;;11.45;88.88
55576;BME280;41437;45.478;9.116;2023-02-18T10:31:04;100983.06;;;11.55;87.40
55576;BME280;41437;45.478;9.116;2023-02-18T10:34:12;100970.09;;;11.56;87.30
55576;BME280;41437;45.478;9.116;2023-02-18T10:37:41;100984.59;;;11.75;86.97
55576;BME280;41437;45.478;9.116;2023-02-18T10:40:53;100980.91;;;11.81;86.69
55576;BME280;41437;45.478;9.116;2023-02-18T10:44:04;100985.34;;;11.82;87.79
55576;BME280;41437;45.478;9.116;2023-02-18T10:47:16;100981.97;;;12.03;88.14
55576;BME280;41437;45.478;9.116;2023-02-18T10:50:27;100966.00;;;12.05;85.51
55576;BME280;41437;45.478;9.116;2023-02-18T10:53:33;100971.97;;;12.14;86.20
55576;BME280;41437;45.478;9.116;2023-02-18T10:56:40;100966.59;;;12.19;85.53
55576;BME280;41437;45.478;9.116;2023-02-18T10:59:54;100967.03;;;12.28;84.86
55576;BME280;41437;45.478;9.116;2023-02-18T11:03:15;100964.47;;;12.38;84.06
55576;BME280;41437;45.478;9.116;2023-02-18T11:06:21;100956.81;;;12.28;84.71
55576;BME280;41437;45.478;9.116;2023-02-18T11:09:31;100949.81;;;12.66;85.19
55576;BME280;41437;45.478;9.116;2023-02-18T11:12:42;100945.91;;;12.79;82.00
55576;BME280;41437;45.478;9.116;2023-02-18T11:15:57;100940.75;;;12.54;82.30
55576;BME280;41437;45.478;9.116;2023-02-18T11:18:58;100939.56;;;12.67;83.41
55576;BME280;41437;45.478;9.116;2023-02-18T11:22:12;100942.56;;;12.77;80.95
55576;BME280;41437;45.478;9.116;2023-02-18T11:25:22;100926.22;;;13.09;82.60
55576;BME280;41437;45.478;9.116;2023-02-18T11:28:38;100928.16;;;13.08;78.94
55576;BME280;41437;45.478;9.116;2023-02-18T11:31:46;100918.59;;;12.99;79.05
55576;BME280;41437;45.478;9.116;2023-02-18T11:34:52;100910.88;;;13.01;79.94
55576;BME280;41437;45.478;9.116;2023-02-18T11:37:56;100913.41;;;13.03;80.38
55576;BME280;41437;45.478;9.116;2023-02-18T11:41:04;100902.16;;;13.09;79.72
55576;BME280;41437;45.478;9.116;2023-02-18T11:44:18;100878.94;;;13.44;79.01
55576;BME280;41437;45.478;9.116;2023-02-18T11:47:31;100892.94;;;13.21;78.61
55576;BME280;41437;45.478;9.116;2023-02-18T11:50:34;100895.44;;;13.05;77.90
55576;BME280;41437;45.478;9.116;2023-02-18T11:53:36;100879.59;;;13.18;78.52
55576;BME280;41437;45.478;9.116;2023-02-18T11:56:37;100875.53;;;13.37;77.88
55576;BME280;41437;45.478;9.116;2023-02-18T11:59:42;100875.78;;;13.57;77.30
55576;BME280;41437;45.478;9.116;2023-02-18T12:02:46;100875.66;;;13.47;77.17
55576;BME280;41437;45.478;9.116;2023-02-18T12:05:47;100871.03;;;13.75;76.71
55576;BME280;41437;45.478;9.116;2023-02-18T12:08:55;100861.91;;;13.96;74.03
55576;BME280;41437;45.478;9.116;2023-02-18T12:12:00;100853.84;;;13.95;73.17
55576;BME280;41437;45.478;9.116;2023-02-18T12:15:04;100839.13;;;13.67;73.04
55576;BME280;41437;45.478;9.116;2023-02-18T12:18:34;100833.59;;;13.67;72.85
55576;BME280;41437;45.478;9.116;2023-02-18T12:21:49;100825.81;;;13.91;73.67
55576;BME280;41437;45.478;9.116;2023-02-18T12:25:09;100829.41;;;14.14;72.43
55576;BME280;41437;45.478;9.116;2023-02-18T12:28:30;100818.22;;;14.30;72.19
55576;BME280;41437;45.478;9.116;2023-02-18T12:31:44;100813.94;;;14.18;70.85
55576;BME280;41437;45.478;9.116;2023-02-18T12:35:00;100803.88;;;14.39;71.29
55576;BME280;41437;45.478;9.116;2023-02-18T12:38:21;100802.09;;;14.27;69.38
55576;BME280;41437;45.478;9.116;2023-02-18T12:41:46;100801.69;;;14.14;70.05
55576;BME280;41437;45.478;9.116;2023-02-18T12:45:04;100799.78;;;13.92;70.71
55576;BME280;41437;45.478;9.116;2023-02-18T12:48:23;100789.06;;;14.01;70.54
55576;BME280;41437;45.478;9.116;2023-02-18T12:51:47;100783.91;;;14.09;69.80
55576;BME280;41437;45.478;9.116;2023-02-18T12:55:08;100773.88;;;14.03;69.64
55576;BME280;41437;45.478;9.116;2023-02-18T12:58:28;100765.16;;;14.17;69.86
55576;BME280;41437;45.478;9.116;2023-02-18T13:01:42;100763.38;;;14.32;69.00
55576;BME280;41437;45.478;9.116;2023-02-18T13:04:53;100758.53;;;14.23;69.48
55576;BME280;41437;45.478;9.116;2023-02-18T13:08:09;100751.16;;;14.33;69.12
55576;BME280;41437;45.478;9.116;2023-02-18T13:11:22;100740.03;;;14.28;69.73
55576;BME280;41437;45.478;9.116;2023-02-18T13:14:28;100741.47;;;14.36;69.81
55576;BME280;41437;45.478;9.116;2023-02-18T13:17:33;100731.69;;;14.55;68.88
55576;BME280;41437;45.478;9.116;2023-02-18T13:20:40;100722.94;;;14.74;67.57
55576;BME280;41437;45.478;9.116;2023-02-18T13:23:49;100713.41;;;14.60;67.01
55576;BME280;41437;45.478;9.116;2023-02-18T13:26:57;100721.19;;;14.63;67.75
55576;BME280;41437;45.478;9.116;2023-02-18T13:30:24;100714.66;;;14.79;67.63
55576;BME280;41437;45.478;9.116;2023-02-18T13:33:35;100709.06;;;14.74;66.86
55576;BME280;41437;45.478;9.116;2023-02-18T13:36:49;100710.72;;;14.75;67.75
55576;BME280;41437;45.478;9.116;2023-02-18T13:39:56;100703.81;;;14.72;67.74
55576;BME280;41437;45.478;9.116;2023-02-18T13:43:17;100698.31;;;14.82;66.81
55576;BME280;41437;45.478;9.116;2023-02-18T13:46:19;100702.72;;;14.78;66.89
55576;BME280;41437;45.478;9.116;2023-02-18T13:49:23;100696.38;;;14.88;67.59
55576;BME280;41437;45.478;9.116;2023-02-18T13:52:26;100688.66;;;14.90;66.92
55576;BME280;41437;45.478;9.116;2023-02-18T13:55:34;100683.66;;;14.97;67.71
55576;BME280;41437;45.478;9.116;2023-02-18T13:58:41;100671.22;;;15.00;67.27
55576;BME280;41437;45.478;9.116;2023-02-18T14:01:45;100670.13;;;15.06;66.52
55576;BME280;41437;45.478;9.116;2023-02-18T14:04:51;100673.19;;;15.04;66.96
55576;BME280;41437;45.478;9.116;2023-02-18T14:08:06;100673.66;;;14.91;67.21
55576;BME280;41437;45.478;9.116;2023-02-18T14:11:32;100666.25;;;15.02;66.57
55576;BME280;41437;45.478;9.116;2023-02-18T14:14:37;100672.97;;;14.64;67.45
55576;BME280;41437;45.478;9.116;2023-02-18T14:17:42;100660.56;;;14.76;66.95
55576;BME280;41437;45.478;9.116;2023-02-18T14:20:50;100664.25;;;14.97;67.70
55576;BME280;41437;45.478;9.116;2023-02-18T14:23:57;100651.28;;;15.08;66.18
55576;BME280;41437;45.478;9.116;2023-02-18T14:27:14;100657.13;;;15.17;64.79
55576;BME280;41437;45.478;9.116;2023-02-18T14:30:19;100651.56;;;15.12;64.72
55576;BME280;41437;45.478;9.116;2023-02-18T14:33:25;100651.06;;;15.25;65.43
55576;BME280;41437;45.478;9.116;2023-02-18T14:36:35;100647.75;;;15.33;64.06
55576;BME280;41437;45.478;9.116;2023-02-18T14:39:49;100642.75;;;15.30;64.82
55576;BME280;41437;45.478;9.116;2023-02-18T14:43:01;100639.44;;;15.33;63.81
55576;BME280;41437;45.478;9.116;2023-02-18T14:46:23;100632.78;;;15.44;64.27
55576;BME280;41437;45.478;9.116;2023-02-18T14:49:36;100634.13;;;15.31;62.69
55576;BME280;41437;45.478;9.116;2023-02-18T14:52:41;100644.47;;;15.41;62.59
55576;BME280;41437;45.478;9.116;2023-02-18T14:55:45;100641.63;;;15.26;64.24
55576;BME280;41437;45.478;9.116;2023-02-18T14:58:52;100641.63;;;15.26;63.60
55576;BME280;41437;45.478;9.116;2023-02-18T15:01:59;100637.75;;;15.32;64.33
55576;BME280;41437;45.478;9.116;2023-02-18T15:05:15;100631.09;;;15.33;64.39
55576;BME280;41437;45.478;9.116;2023-02-18T15:08:18;100635.47;;;15.19;64.00
55576;BME280;41437;45.478;9.116;2023-02-18T15:11:21;100630.22;;;15.22;64.32
55576;BME280;41437;45.478;9.116;2023-02-18T15:14:28;100632.44;;;15.20;64.29
55576;BME280;41437;45.478;9.116;2023-02-18T15:17:31;100627.72;;;15.21;64.66
55576;BME280;41437;45.478;9.116;2023-02-18T15:20:33;100618.81;;;15.19;65.06
55576;BME280;41437;45.478;9.116;2023-02-18T15:23:37;100616.56;;;15.11;65.45
55576;BME280;41437;45.478;9.116;2023-02-18T15:26:41;100630.19;;;15.12;65.08
55576;BME280;41437;45.478;9.116;2023-02-18T15:29:55;100624.03;;;15.00;66.65
55576;BME280;41437;45.478;9.116;2023-02-18T15:32:59;100625.69;;;15.01;65.76
55576;BME280;41437;45.478;9.116;2023-02-18T15:36:01;100633.97;;;14.91;65.75
55576;BME280;41437;45.478;9.116;2023-02-18T15:39:05;100622.28;;;14.83;67.37
55576;BME280;41437;45.478;9.116;2023-02-18T15:42:09;100622.53;;;14.77;67.08
55576;BME280;41437;45.478;9.116;2023-02-18T15:45:19;100616.69;;;14.73;66.93
55576;BME280;41437;45.478;9.116;2023-02-18T15:48:28;100615.78;;;14.63;67.10
55576;BME280;41437;45.478;9.116;2023-02-18T15:51:32;100626.31;;;14.55;67.35
55576;BME280;41437;45.478;9.116;2023-02-18T15:54:36;100619.56;;;14.46;67.41
55576;BME280;41437;45.478;9.116;2023-02-18T15:57:40;100627.84;;;14.41;68.10
55576;BME280;41437;45.478;9.116;2023-02-18T16:00:49;100618.34;;;14.32;68.05
55576;BME280;41437;45.478;9.116;2023-02-18T16:03:51;100622.72;;;14.23;68.64
55576;BME280;41437;45.478;9.116;2023-02-18T16:10:16;100621.06;;;14.22;68.75
55576;BME280;41437;45.478;9.116;2023-02-18T16:13:22;100624.34;;;14.19;68.69
55576;BME280;41437;45.478;9.116;2023-02-18T16:16:29;100619.84;;;14.07;68.84
55576;BME280;41437;45.478;9.116;2023-02-18T16:19:33;100615.34;;;14.01;69.27